Hauptseite
METAR-TAF:

METAR-TAF

Flughäfen :

Flughafen Donegal

Donegal, Irland

Breite: 55-02-39N, Länge: 8-20-28W, Höhe: 9 m

Beobachtung

Neuester Wetterbericht von vor 7 Stunden und 10 Minuten, um 19:00 UTC
Wind 13 kt aus Nordost
Temperatur 13°C
Luftfeuchtigkeit 82%
Luftdruck 1027 hPa
Sichtweite 10 km oder mehr
Durchbrochene Bewölkung in der Höhe von 1200 ft

METAR: EIDL 251900Z 04013KT 9999 BKN012 13/10 Q1027

Zeit: 03:10 (02:10 UTC)


TAF: fehlend

Wetterbeobachtungen und Prognosen von mehr als 4000 Flughäfen (METAR und TAF Bericht).

Die verfügbaren Stationen werden durch gelbe und rote Markierungen auf der Karte dargestellt.

Führen Sie die Maus auf sie, um den Namen der Station zu sehen.

Darauf klicken, um die Beobachtung von Wetterbeobachtungen und Prognosen zu sehen.

Um die Karte zu ändern : klicken Sie auf den grünen Tasten mit einem schwarzen Kreuz Zum Vergrößern, auf den grünen Button mit einem Gedankenstrich zu verkleinern, oder auf die grünen Pfeile für benachbarte Karten.


METAR-TAF: